Time;durP1;ratioP1;P1;durP2;ratioP2;P2;SDS_P1;SDS_P2;PMS_P1;PMS_P2;Temp;Humidity;BMP_temperature;BMP_pressure;BME280_temperature;BME280_humidity;BME280_pressure;Samples;Min_cycle;Max_cycle;Signal;HPM_P1;HPM_P2
2021/09/16 00:02:10;;;;;;;3.63;3.33;;;19.50;95.60;;;;;;5018817;28;20462;-75
2021/09/16 00:04:37;;;;;;;4.57;2.70;;;19.50;95.20;;;;;;5022281;28;20462;-76
2021/09/16 00:07:05;;;;;;;3.60;3.30;;;19.50;95.50;;;;;;5025025;28;20508;-76
2021/09/16 00:09:32;;;;;;;4.43;2.93;;;19.50;95.30;;;;;;5021052;28;20530;-76
2021/09/16 00:11:59;;;;;;;3.10;2.90;;;19.60;95.20;;;;;;5016485;28;20429;-76
2021/09/16 00:14:26;;;;;;;3.07;2.80;;;19.50;95.20;;;;;;5018695;28;20467;-76
2021/09/16 00:16:53;;;;;;;3.37;2.80;;;19.50;95.20;;;;;;5014059;28;20883;-76
2021/09/16 00:19:20;;;;;;;4.40;3.13;;;19.50;95.20;;;;;;5013940;28;20577;-77
2021/09/16 00:21:47;;;;;;;3.37;3.07;;;19.50;95.20;;;;;;5014358;28;20513;-77
2021/09/16 00:24:15;;;;;;;4.80;3.53;;;19.50;95.20;;;;;;5016505;28;20475;-76
2021/09/16 00:26:42;;;;;;;6.63;3.70;;;19.50;95.20;;;;;;5015389;28;20559;-77
2021/09/16 00:29:11;;;;;;;5.87;3.37;;;19.40;95.60;;;;;;5015052;28;20445;-77
2021/09/16 00:31:38;;;;;;;3.43;2.90;;;19.40;96.00;;;;;;5015825;28;20456;-76
2021/09/16 00:34:05;;;;;;;8.70;4.03;;;19.50;95.70;;;;;;5015709;28;20430;-76
2021/09/16 00:36:32;;;;;;;3.50;3.20;;;19.40;95.70;;;;;;5015480;28;20751;-77
2021/09/16 00:38:59;;;;;;;6.47;3.20;;;19.40;96.10;;;;;;5015336;28;20451;-76
2021/09/16 00:41:28;;;;;;;3.60;3.20;;;19.40;96.00;;;;;;5014964;28;20542;-77
2021/09/16 00:43:55;;;;;;;3.00;2.70;;;19.40;95.60;;;;;;5014825;28;21001;-77
2021/09/16 00:46:23;;;;;;;7.03;3.53;;;19.30;96.40;;;;;;5014567;28;20479;-77
2021/09/16 00:48:49;;;;;;;4.47;3.30;;;19.20;96.90;;;;;;5014703;28;20867;-77
2021/09/16 00:51:16;;;;;;;7.13;3.03;;;19.20;97.10;;;;;;5014551;28;20454;-77
2021/09/16 00:53:44;;;;;;;3.77;3.47;;;19.20;96.90;;;;;;5014901;28;20432;-77
2021/09/16 00:56:13;;;;;;;4.93;3.30;;;19.20;97.00;;;;;;5014655;28;20977;-77
2021/09/16 00:58:42;;;;;;;3.60;3.30;;;19.20;96.90;;;;;;5013438;28;20860;-77
2021/09/16 01:01:09;;;;;;;3.43;3.13;;;19.20;96.90;;;;;;5013715;28;20546;-76
2021/09/16 01:03:36;;;;;;;4.23;3.50;;;19.10;96.90;;;;;;5013647;28;20451;-76
2021/09/16 01:06:03;;;;;;;3.10;2.90;;;19.10;96.90;;;;;;5013353;28;20997;-76
2021/09/16 01:08:30;;;;;;;3.13;2.90;;;19.10;96.80;;;;;;5013389;28;20458;-76
2021/09/16 01:10:58;;;;;;;4.20;2.57;;;19.10;96.70;;;;;;5013424;28;20426;-76
2021/09/16 01:13:25;;;;;;;4.20;3.17;;;19.10;96.60;;;;;;5014844;28;20459;-77
2021/09/16 01:15:54;;;;;;;3.57;2.90;;;19.10;96.70;;;;;;5017948;28;20464;-78
2021/09/16 01:18:20;;;;;;;4.03;3.63;;;19.10;96.50;;;;;;5033891;28;20505;-77
2021/09/16 01:20:47;;;;;;;3.33;3.03;;;19.10;96.20;;;;;;5014629;28;20850;-78
2021/09/16 01:23:16;;;;;;;3.33;3.13;;;19.10;96.20;;;;;;5014742;28;20920;-77
2021/09/16 01:25:43;;;;;;;4.00;3.23;;;19.10;96.40;;;;;;5014017;28;20494;-78
2021/09/16 01:28:09;;;;;;;5.23;3.03;;;19.20;95.80;;;;;;5013270;28;20474;-77
2021/09/16 01:30:36;;;;;;;4.33;3.73;;;19.20;95.40;;;;;;5013392;28;20524;-76
2021/09/16 01:33:03;;;;;;;3.40;3.10;;;19.20;95.10;;;;;;5012947;28;20440;-76
2021/09/16 01:35:31;;;;;;;3.53;3.23;;;19.20;95.10;;;;;;5013000;28;21061;-76
2021/09/16 01:37:59;;;;;;;3.40;3.10;;;19.20;95.10;;;;;;5013102;28;20502;-76
2021/09/16 01:40:27;;;;;;;3.30;2.53;;;19.20;95.40;;;;;;5013373;28;20485;-76
2021/09/16 01:42:54;;;;;;;3.40;2.97;;;19.20;95.40;;;;;;5013223;28;20487;-77
2021/09/16 01:45:22;;;;;;;4.37;3.33;;;19.20;95.10;;;;;;5013576;28;20438;-75
2021/09/16 01:47:50;;;;;;;3.97;2.80;;;19.20;94.70;;;;;;5012917;28;20531;-77
2021/09/16 01:50:19;;;;;;;3.80;2.90;;;19.20;94.70;;;;;;5012943;28;20440;-76
2021/09/16 01:52:46;;;;;;;3.57;2.70;;;19.20;94.60;;;;;;5012811;28;20462;-77
2021/09/16 01:55:13;;;;;;;4.23;2.43;;;19.20;94.10;;;;;;5013194;28;20816;-76
2021/09/16 01:57:41;;;;;;;4.10;2.83;;;19.30;93.90;;;;;;5014474;28;20810;-76
2021/09/16 02:00:10;;;;;;;3.40;2.60;;;19.30;93.60;;;;;;5015472;28;20447;-76
2021/09/16 02:02:37;;;;;;;2.77;2.53;;;19.30;93.30;;;;;;5020112;28;20454;-77
2021/09/16 02:05:05;;;;;;;3.73;2.80;;;19.30;93.30;;;;;;5015163;28;20559;-76
2021/09/16 02:07:32;;;;;;;4.03;2.50;;;19.30;92.90;;;;;;5012807;28;20463;-76
2021/09/16 02:09:58;;;;;;;2.50;2.30;;;19.30;93.00;;;;;;5012588;28;20549;-77
2021/09/16 02:12:25;;;;;;;3.00;2.43;;;19.30;92.90;;;;;;5012744;28;20977;-76
2021/09/16 02:14:54;;;;;;;4.17;2.70;;;19.30;92.50;;;;;;5013336;28;20955;-77
2021/09/16 02:17:20;;;;;;;2.67;2.47;;;19.30;92.50;;;;;;5012874;28;20554;-76
2021/09/16 02:19:47;;;;;;;4.30;2.73;;;19.40;92.40;;;;;;5013010;28;20922;-77
2021/09/16 02:22:14;;;;;;;3.40;3.10;;;19.40;92.20;;;;;;5014556;28;20989;-77
2021/09/16 02:24:41;;;;;;;2.97;2.77;;;19.40;92.20;;;;;;5012440;28;20880;-76
2021/09/16 02:27:08;;;;;;;3.17;2.87;;;19.30;92.30;;;;;;5017379;28;20855;-78
2021/09/16 02:29:35;;;;;;;2.60;2.40;;;19.40;92.50;;;;;;5016670;28;20514;-76
2021/09/16 02:32:04;;;;;;;3.13;2.80;;;19.40;92.30;;;;;;5017095;28;20506;-76
2021/09/16 02:34:31;;;;;;;4.00;3.00;;;19.40;92.20;;;;;;5016117;28;20477;-77
2021/09/16 02:36:57;;;;;;;2.80;2.50;;;19.40;92.20;;;;;;5017332;28;20430;-76
2021/09/16 02:39:24;;;;;;;3.23;2.50;;;19.50;92.20;;;;;;5015746;28;20455;-77
2021/09/16 02:41:51;;;;;;;2.60;2.40;;;19.40;92.40;;;;;;5015945;28;20548;-77
2021/09/16 02:44:18;;;;;;;3.93;3.20;;;19.40;92.80;;;;;;5016382;28;20490;-77
2021/09/16 02:46:45;;;;;;;4.77;3.77;;;19.40;93.50;;;;;;5016533;28;20581;-76
2021/09/16 02:49:13;;;;;;;5.07;3.47;;;19.40;93.40;;;;;;5015824;28;21015;-76
2021/09/16 02:51:40;;;;;;;4.40;3.80;;;19.40;93.70;;;;;;5016193;28;20485;-76
2021/09/16 02:54:08;;;;;;;4.60;3.10;;;19.40;94.60;;;;;;5019319;28;20575;-77
2021/09/16 02:56:35;;;;;;;4.57;3.40;;;19.40;94.30;;;;;;5017091;28;20454;-77
2021/09/16 02:59:02;;;;;;;4.57;3.60;;;19.50;94.50;;;;;;5018447;28;20578;-77
2021/09/16 03:01:29;;;;;;;5.70;4.10;;;19.40;94.70;;;;;;5018787;28;20550;-77
2021/09/16 03:03:56;;;;;;;4.00;3.60;;;19.40;95.20;;;;;;5016748;28;20547;-76
2021/09/16 03:06:24;;;;;;;4.70;4.30;;;19.40;95.20;;;;;;5016229;28;20513;-75
2021/09/16 03:08:51;;;;;;;4.40;3.77;;;19.40;95.70;;;;;;5015264;28;21053;-77
2021/09/16 03:11:18;;;;;;;5.73;4.40;;;19.40;96.10;;;;;;5020071;28;20970;-76
2021/09/16 03:13:45;;;;;;;5.10;4.50;;;19.40;96.60;;;;;;5016299;28;20446;-77
2021/09/16 03:16:12;;;;;;;5.57;4.27;;;19.40;97.00;;;;;;5015808;28;20436;-77
2021/09/16 03:18:39;;;;;;;4.70;4.30;;;19.30;96.90;;;;;;5015600;28;20601;-77
2021/09/16 03:21:06;;;;;;;5.30;4.60;;;19.30;97.40;;;;;;5019662;28;20910;-77
2021/09/16 03:23:34;;;;;;;5.30;3.93;;;19.40;97.80;;;;;;5026818;28;20537;-78
2021/09/16 03:26:01;;;;;;;4.80;4.07;;;19.30;98.50;;;;;;5035897;28;20417;-77
2021/09/16 03:28:28;;;;;;;4.80;4.10;;;19.20;99.90;;;;;;5012341;28;20482;-77
2021/09/16 03:30:55;;;;;;;4.73;4.23;;;19.10;99.90;;;;;;5031613;28;20458;-76
2021/09/16 03:33:22;;;;;;;5.43;4.10;;;19.00;99.90;;;;;;5017100;28;20555;-76
2021/09/16 03:35:49;;;;;;;5.63;4.90;;;19.00;99.90;;;;;;5016801;28;20525;-77
2021/09/16 03:38:16;;;;;;;5.00;4.50;;;18.90;99.90;;;;;;5017244;28;20476;-77
2021/09/16 03:40:44;;;;;;;6.63;6.00;;;18.80;99.90;;;;;;5018305;28;20487;-76
2021/09/16 03:43:11;;;;;;;6.80;6.10;;;18.80;99.90;;;;;;5021498;28;20549;-78
2021/09/16 03:45:38;;;;;;;7.27;6.40;;;18.70;99.90;;;;;;5019007;28;20494;-77
2021/09/16 03:48:05;;;;;;;9.37;7.23;;;18.80;99.90;;;;;;5024062;28;20573;-78
2021/09/16 03:50:32;;;;;;;14.73;10.47;;;18.70;99.90;;;;;;5022775;28;20460;-78
2021/09/16 03:52:59;;;;;;;12.70;11.40;;;18.70;99.90;;;;;;5023003;28;20434;-77
2021/09/16 03:55:26;;;;;;;13.40;11.47;;;18.60;99.90;;;;;;5029169;28;20502;-76
2021/09/16 03:57:54;;;;;;;16.13;13.97;;;18.70;99.90;;;;;;5038992;28;20490;-77
2021/09/16 04:00:21;;;;;;;23.97;17.60;;;18.60;99.90;;;;;;5039185;28;20459;-79
2021/09/16 04:02:48;;;;;;;24.10;20.10;;;18.60;99.90;;;;;;5039068;28;20701;-79
2021/09/16 04:05:15;;;;;;;30.07;22.47;;;18.40;99.90;;;;;;5039197;28;20433;-78
2021/09/16 04:07:42;;;;;;;28.30;21.03;;;18.40;99.90;;;;;;5039237;28;20601;-78
2021/09/16 04:10:11;;;;;;;28.70;23.37;;;18.40;99.90;;;;;;5038706;28;20449;-78
2021/09/16 04:12:38;;;;;;;29.87;21.97;;;18.30;99.90;;;;;;5038700;28;20514;-79
2021/09/16 04:15:07;;;;;;;31.87;24.50;;;18.30;99.90;;;;;;5037564;28;20425;-79
2021/09/16 04:17:34;;;;;;;32.20;24.73;;;18.20;99.90;;;;;;5034795;28;20450;-78
2021/09/16 04:20:01;;;;;;;33.03;25.20;;;18.10;99.90;;;;;;5017789;28;20457;-78
2021/09/16 04:22:28;;;;;;;32.37;24.90;;;18.00;99.90;;;;;;5017241;28;20545;-76
2021/09/16 04:24:55;;;;;;;33.53;27.20;;;18.00;99.90;;;;;;5017418;28;20495;-77
2021/09/16 04:27:22;;;;;;;34.90;28.20;;;17.90;99.90;;;;;;5032006;28;20497;-78
2021/09/16 04:29:49;;;;;;;40.93;29.97;;;17.80;99.90;;;;;;5038430;28;20437;-78
2021/09/16 04:32:17;;;;;;;44.40;30.70;;;17.80;99.90;;;;;;5038739;28;20459;-78
2021/09/16 04:34:44;;;;;;;43.90;31.00;;;17.70;99.90;;;;;;5033274;28;20980;-76
2021/09/16 04:37:11;;;;;;;46.00;31.90;;;17.60;99.90;;;;;;5016366;28;20490;-77
2021/09/16 04:39:38;;;;;;;45.67;32.03;;;17.50;99.90;;;;;;5017926;28;20453;-76
2021/09/16 04:42:05;;;;;;;42.27;31.50;;;17.40;99.90;;;;;;5015898;28;20521;-76
2021/09/16 04:44:33;;;;;;;40.47;31.77;;;17.40;99.90;;;;;;5014906;28;20833;-75
2021/09/16 04:47:00;;;;;;;44.03;31.30;;;17.30;99.90;;;;;;5017840;28;20508;-77
2021/09/16 04:49:28;;;;;;;47.47;30.83;;;17.30;99.90;;;;;;5034155;28;20476;-79
2021/09/16 04:51:55;;;;;;;44.30;31.17;;;17.30;99.90;;;;;;5016527;28;20453;-77
2021/09/16 04:54:22;;;;;;;48.03;31.60;;;17.30;99.90;;;;;;5014316;28;20464;-77
2021/09/16 04:56:49;;;;;;;47.87;33.27;;;17.30;99.90;;;;;;5014133;28;20429;-76
2021/09/16 04:59:16;;;;;;;45.27;32.70;;;17.20;99.90;;;;;;5013640;28;20477;-76
2021/09/16 05:01:43;;;;;;;50.47;33.07;;;17.20;99.90;;;;;;5014221;28;20531;-75
2021/09/16 05:04:10;;;;;;;52.83;31.47;;;17.20;99.90;;;;;;5013929;28;20454;-75
2021/09/16 05:06:38;;;;;;;49.37;32.07;;;17.10;99.90;;;;;;5014162;28;20557;-75
2021/09/16 05:09:05;;;;;;;47.50;31.93;;;17.10;99.90;;;;;;5013046;28;20483;-75
2021/09/16 05:11:39;;;;;;;47.70;31.57;;;17.10;99.90;;;;;;5014439;28;20519;-76
2021/09/16 05:14:05;;;;;;;50.73;34.67;;;17.00;99.90;;;;;;5013867;28;20462;-77
2021/09/16 05:16:32;;;;;;;46.33;31.97;;;17.00;99.90;;;;;;5013379;28;20464;-76
2021/09/16 05:18:59;;;;;;;45.40;30.60;;;17.00;99.90;;;;;;5016246;28;20836;-76
2021/09/16 05:21:26;;;;;;;49.67;30.70;;;17.00;99.90;;;;;;5019050;28;20458;-77
2021/09/16 05:23:55;;;;;;;51.37;30.70;;;16.90;99.90;;;;;;5019927;28;20480;-75
2021/09/16 05:26:22;;;;;;;48.30;31.47;;;16.90;99.90;;;;;;5021420;28;20520;-75
2021/09/16 05:28:49;;;;;;;45.03;30.90;;;16.90;99.90;;;;;;5026859;28;20512;-76
2021/09/16 05:31:16;;;;;;;46.83;32.07;;;16.90;99.90;;;;;;5018181;28;20462;-76
2021/09/16 05:33:43;;;;;;;38.87;29.07;;;16.80;99.90;;;;;;5023323;28;20431;-76
2021/09/16 05:36:10;;;;;;;43.57;29.60;;;16.90;99.90;;;;;;5014585;28;20485;-76
2021/09/16 05:38:38;;;;;;;41.70;29.87;;;16.90;99.90;;;;;;5013753;28;20539;-76
2021/09/16 05:41:06;;;;;;;40.27;29.37;;;16.80;99.90;;;;;;5014320;28;20469;-76
2021/09/16 05:43:33;;;;;;;41.77;28.87;;;16.80;99.90;;;;;;5015356;28;20465;-77
2021/09/16 05:46:00;;;;;;;39.30;26.87;;;16.80;99.90;;;;;;5015509;28;20502;-76
2021/09/16 05:48:27;;;;;;;35.10;26.73;;;16.80;99.90;;;;;;5015866;28;20817;-76
2021/09/16 05:50:54;;;;;;;35.60;25.87;;;16.80;99.90;;;;;;5014643;28;20500;-76
2021/09/16 05:53:21;;;;;;;31.80;24.40;;;16.80;99.90;;;;;;5015526;28;20488;-77
2021/09/16 05:55:48;;;;;;;30.27;22.50;;;16.80;99.90;;;;;;5015786;28;20516;-78
2021/09/16 05:58:16;;;;;;;31.70;23.03;;;16.90;99.90;;;;;;5017513;28;21056;-79
2021/09/16 06:00:43;;;;;;;31.33;22.67;;;16.90;99.90;;;;;;5017743;28;20531;-78
2021/09/16 06:03:10;;;;;;;25.17;21.30;;;16.90;99.90;;;;;;5016099;28;20487;-77
2021/09/16 06:05:37;;;;;;;41.33;22.60;;;16.90;99.90;;;;;;5015316;28;20808;-76
2021/09/16 06:08:04;;;;;;;28.70;22.47;;;16.90;99.90;;;;;;5014484;28;20995;-76
2021/09/16 06:10:31;;;;;;;30.13;22.90;;;16.90;99.90;;;;;;5014250;28;20532;-75
2021/09/16 06:12:58;;;;;;;34.30;23.92;;;16.90;99.90;;;;;;5014211;28;20881;-75
2021/09/16 06:15:27;;;;;;;33.77;24.17;;;16.90;99.90;;;;;;5014685;28;20676;-75
2021/09/16 06:17:53;;;;;;;34.60;25.07;;;16.80;99.90;;;;;;5009977;28;20547;-76
2021/09/16 06:20:20;;;;;;;38.23;26.07;;;16.80;99.90;;;;;;5010937;28;20556;-75
2021/09/16 06:22:47;;;;;;;32.80;24.60;;;16.80;99.90;;;;;;5015775;28;20460;-77
2021/09/16 06:25:15;;;;;;;34.07;24.43;;;16.80;99.90;;;;;;5015898;28;20523;-76
2021/09/16 06:27:43;;;;;;;35.07;23.30;;;16.70;99.90;;;;;;5013707;28;20496;-76
2021/09/16 06:30:11;;;;;;;31.77;20.77;;;16.80;99.90;;;;;;5002601;28;20544;-75
2021/09/16 06:32:40;;;;;;;29.40;21.37;;;16.70;99.90;;;;;;5019456;28;20465;-76
2021/09/16 06:35:08;;;;;;;30.10;21.73;;;16.70;99.90;;;;;;5021801;28;20482;-75
2021/09/16 06:37:35;;;;;;;29.97;22.60;;;16.70;99.90;;;;;;5015992;28;20898;-76
2021/09/16 06:40:02;;;;;;;30.20;21.60;;;16.60;99.90;;;;;;5013189;28;20555;-75
2021/09/16 06:42:29;;;;;;;27.50;20.67;;;16.60;99.90;;;;;;5013177;28;20460;-76
2021/09/16 06:44:56;;;;;;;31.70;23.77;;;16.60;99.90;;;;;;5013110;28;20459;-76
2021/09/16 06:47:23;;;;;;;35.77;23.47;;;16.50;99.90;;;;;;5012766;28;20580;-78
2021/09/16 06:49:51;;;;;;;31.30;22.10;;;16.50;99.90;;;;;;5013304;28;20461;-76
2021/09/16 06:52:22;;;;;;;32.50;22.97;;;16.50;99.90;;;;;;5012805;28;20556;-76
2021/09/16 06:54:49;;;;;;;33.30;23.73;;;16.50;99.90;;;;;;5012670;28;20462;-75
2021/09/16 06:57:16;;;;;;;35.23;23.47;;;16.40;99.90;;;;;;5012470;28;20545;-76
2021/09/16 06:59:43;;;;;;;38.63;25.23;;;16.40;99.90;;;;;;5013072;28;21024;-75
2021/09/16 07:02:11;;;;;;;36.37;25.37;;;16.40;99.90;;;;;;5013412;28;20894;-74
2021/09/16 07:04:39;;;;;;;33.03;24.00;;;16.40;99.90;;;;;;5011805;28;20481;-77
2021/09/16 07:07:07;;;;;;;39.23;23.67;;;16.30;99.90;;;;;;5013012;28;21209;-77
2021/09/16 07:09:35;;;;;;;38.45;25.83;;;16.30;99.90;;;;;;5013746;28;20471;-78
2021/09/16 07:12:02;;;;;;;39.17;25.03;;;16.30;99.90;;;;;;5019868;28;20544;-74
2021/09/16 07:14:30;;;;;;;40.35;26.25;;;16.30;99.90;;;;;;5018174;28;20464;-76
2021/09/16 07:16:57;;;;;;;40.70;26.00;;;16.30;99.90;;;;;;5017657;28;20309;-77
2021/09/16 07:19:24;;;;;;;39.55;26.70;;;16.30;99.90;;;;;;5019299;28;20564;-77
2021/09/16 07:21:52;;;;;;;39.77;27.07;;;16.30;99.90;;;;;;5021387;28;20272;-77
2021/09/16 07:24:21;;;;;;;38.37;24.83;;;16.30;99.90;;;;;;5021485;28;20507;-77
2021/09/16 07:26:51;;;;;;;34.78;25.45;;;16.30;99.90;;;;;;5020086;28;20461;-76
2021/09/16 07:29:18;;;;;;;35.50;25.70;;;16.30;99.90;;;;;;5019391;28;20688;-77
2021/09/16 07:31:45;;;;;;;39.10;24.90;;;16.30;99.90;;;;;;5019616;28;20876;-76
2021/09/16 07:34:14;;;;;;;35.83;25.03;;;16.30;99.90;;;;;;5025301;28;20499;-75
2021/09/16 07:36:43;;;;;;;35.47;24.23;;;16.30;99.90;;;;;;5030972;28;20472;-73
2021/09/16 07:39:11;;;;;;;33.80;23.90;;;16.40;99.90;;;;;;5035220;28;20496;-74
2021/09/16 07:41:40;;;;;;;34.35;25.02;;;16.40;99.90;;;;;;5037187;28;20475;-74
2021/09/16 07:44:07;;;;;;;34.00;24.60;;;16.40;99.90;;;;;;5038842;28;20234;-75
2021/09/16 07:46:35;;;;;;;33.33;24.20;;;16.40;99.90;;;;;;5035263;28;20457;-75
2021/09/16 07:49:02;;;;;;;31.47;23.43;;;16.40;99.90;;;;;;5026230;28;20532;-73
2021/09/16 07:51:29;;;;;;;34.07;24.20;;;16.40;99.90;;;;;;5031768;28;20468;-74
2021/09/16 07:53:56;;;;;;;34.33;25.40;;;16.40;99.90;;;;;;5025202;28;20927;-73
2021/09/16 07:56:23;;;;;;;37.60;24.87;;;16.40;99.90;;;;;;5023332;28;20523;-71
2021/09/16 07:58:51;;;;;;;35.20;24.57;;;16.40;99.90;;;;;;5023775;28;20504;-71
2021/09/16 08:01:18;;;;;;;39.07;26.50;;;16.40;99.90;;;;;;5008590;28;20486;-73
2021/09/16 08:03:45;;;;;;;32.50;23.17;;;16.40;99.90;;;;;;5027165;28;20477;-73
2021/09/16 08:06:12;;;;;;;35.70;24.03;;;16.50;99.90;;;;;;5034410;28;20416;-73
2021/09/16 08:08:39;;;;;;;34.70;23.97;;;16.50;99.90;;;;;;5035021;28;20468;-76
2021/09/16 08:11:06;;;;;;;32.23;22.93;;;16.40;99.90;;;;;;5032770;28;20450;-73
2021/09/16 08:13:33;;;;;;;33.90;23.67;;;16.50;99.90;;;;;;5027356;28;20621;-75
2021/09/16 08:16:01;;;;;;;31.57;22.90;;;16.50;99.90;;;;;;5028749;28;21006;-74
2021/09/16 08:18:28;;;;;;;28.53;21.90;;;16.60;99.90;;;;;;5023564;28;20496;-73
2021/09/16 08:20:55;;;;;;;34.43;23.10;;;16.80;99.90;;;;;;5020547;28;20958;-74
2021/09/16 08:23:23;;;;;;;33.80;24.27;;;16.90;99.90;;;;;;5023159;28;20965;-74
2021/09/16 08:25:50;;;;;;;26.00;21.70;;;16.90;99.90;;;;;;5020035;28;20521;-74
2021/09/16 08:28:20;;;;;;;29.73;20.40;;;16.90;99.90;;;;;;5018588;28;20517;-73
2021/09/16 08:30:47;;;;;;;27.83;22.10;;;16.90;99.90;;;;;;5017609;28;20455;-73
2021/09/16 08:33:16;;;;;;;25.60;21.40;;;16.90;99.90;;;;;;5015578;28;20943;-73
2021/09/16 08:35:43;;;;;;;28.57;20.23;;;16.90;99.90;;;;;;4996763;28;20962;-73
2021/09/16 08:38:10;;;;;;;24.40;20.60;;;16.90;99.90;;;;;;4996577;28;20471;-74
2021/09/16 08:40:37;;;;;;;23.00;18.90;;;16.90;99.90;;;;;;4995859;28;20882;-73
2021/09/16 08:43:05;;;;;;;26.13;19.57;;;17.00;99.90;;;;;;4997089;28;20455;-73
2021/09/16 08:45:32;;;;;;;24.20;20.60;;;17.00;99.90;;;;;;4999318;28;20441;-72
2021/09/16 08:47:59;;;;;;;26.00;20.23;;;17.20;99.90;;;;;;5015061;28;20501;-74
2021/09/16 08:50:30;;;;;;;26.33;19.13;;;17.10;99.90;;;;;;5014489;28;20477;-73
2021/09/16 08:52:57;;;;;;;23.43;19.23;;;17.10;99.90;;;;;;5023377;28;20438;-73
2021/09/16 08:55:26;;;;;;;26.10;19.70;;;17.20;99.90;;;;;;5026977;28;20505;-74
2021/09/16 08:57:56;;;;;;;23.37;19.17;;;17.10;99.90;;;;;;5009221;28;20465;-74
2021/09/16 09:00:24;;;;;;;25.57;19.73;;;17.20;99.90;;;;;;5033110;28;20502;-73
2021/09/16 09:02:52;;;;;;;22.90;18.07;;;17.40;99.90;;;;;;5020208;28;20484;-73
2021/09/16 09:05:20;;;;;;;24.07;17.67;;;17.40;99.90;;;;;;5014140;28;20501;-73
2021/09/16 09:07:50;;;;;;;24.13;21.00;;;17.30;99.90;;;;;;5013257;28;20517;-72
2021/09/16 09:10:38;;;;;;;21.50;17.03;;;17.50;99.90;;;;;;5014250;28;20461;-73
2021/09/16 09:13:06;;;;;;;22.07;19.77;;;17.50;99.90;;;;;;5017028;28;20526;-73
2021/09/16 09:15:34;;;;;;;27.40;18.73;;;17.50;99.90;;;;;;5033843;28;20454;-73
2021/09/16 09:18:09;;;;;;;22.93;18.37;;;17.70;99.90;;;;;;5026826;28;20859;-72
2021/09/16 09:20:54;;;;;;;21.37;18.47;;;17.80;99.90;;;;;;5014582;28;20462;-73
2021/09/16 09:23:26;;;;;;;18.60;16.67;;;18.00;99.90;;;;;;5013848;28;20501;-73
2021/09/16 09:25:53;;;;;;;18.57;16.63;;;18.20;99.90;;;;;;5014216;28;20496;-73
2021/09/16 09:28:32;;;;;;;21.50;17.60;;;18.40;99.90;;;;;;5012673;28;20500;-74
2021/09/16 09:31:01;;;;;;;21.53;16.37;;;18.50;99.90;;;;;;5012379;28;20496;-72
2021/09/16 09:33:33;;;;;;;19.20;15.77;;;18.50;98.70;;;;;;5018248;28;20433;-71
2021/09/16 09:36:08;;;;;;;19.20;15.90;;;18.50;98.70;;;;;;5000695;28;20969;-73
2021/09/16 09:38:50;;;;;;;18.80;15.33;;;18.30;99.10;;;;;;5012866;28;20455;-73
2021/09/16 09:41:28;;;;;;;18.80;15.53;;;18.40;99.70;;;;;;5008176;28;20497;-73
2021/09/16 09:44:07;;;;;;;24.93;17.67;;;18.20;99.50;;;;;;5011211;28;20549;-72
2021/09/16 09:46:40;;;;;;;16.97;15.20;;;18.30;99.90;;;;;;4993682;28;20460;-72
2021/09/16 09:49:09;;;;;;;14.47;12.93;;;18.60;98.80;;;;;;5009237;28;20490;-73
2021/09/16 09:51:37;;;;;;;15.00;13.13;;;18.70;95.60;;;;;;5015595;28;20532;-72
2021/09/16 09:54:20;;;;;;;16.03;14.03;;;18.70;93.00;;;;;;5016148;28;20451;-73
2021/09/16 09:57:04;;;;;;;14.43;12.93;;;18.40;94.70;;;;;;5020677;28;20518;-72
2021/09/16 10:00:02;;;;;;;12.93;11.60;;;18.60;93.90;;;;;;5020539;28;20480;-73
2021/09/16 10:02:32;;;;;;;16.07;12.30;;;18.70;93.90;;;;;;5025882;28;20963;-73
2021/09/16 10:05:00;;;;;;;13.77;12.37;;;18.80;93.70;;;;;;5018624;28;20487;-72
2021/09/16 10:07:38;;;;;;;14.10;12.33;;;18.80;91.20;;;;;;5017286;28;20922;-73
2021/09/16 10:10:09;;;;;;;13.13;11.63;;;18.90;92.00;;;;;;5016137;28;20988;-73
2021/09/16 10:12:37;;;;;;;16.50;12.80;;;18.70;92.00;;;;;;5014341;28;20478;-73
2021/09/16 10:15:06;;;;;;;15.43;11.37;;;18.60;92.00;;;;;;5014079;28;20501;-73
2021/09/16 10:17:33;;;;;;;13.97;11.30;;;18.60;90.70;;;;;;5013467;28;20482;-73
2021/09/16 10:20:00;;;;;;;13.90;11.23;;;18.60;90.30;;;;;;5012902;28;20516;-73
2021/09/16 10:22:29;;;;;;;12.60;11.23;;;18.60;90.70;;;;;;4993027;28;20459;-73
2021/09/16 10:24:56;;;;;;;16.60;11.40;;;18.50;91.10;;;;;;5002357;28;20550;-73
2021/09/16 10:27:37;;;;;;;12.77;11.57;;;18.70;91.10;;;;;;5008282;28;20456;-73
2021/09/16 10:30:36;;;;;;;12.73;11.40;;;18.90;89.70;;;;;;5008370;28;20518;-73
2021/09/16 10:33:09;;;;;;;12.30;11.10;;;19.30;84.80;;;;;;5010836;28;20550;-73
2021/09/16 10:35:38;;;;;;;13.00;10.73;;;19.50;81.60;;;;;;5013593;28;20543;-72
2021/09/16 10:38:21;;;;;;;11.60;10.60;;;19.70;77.70;;;;;;5014142;28;20479;-73
2021/09/16 10:40:49;;;;;;;11.97;10.80;;;19.80;76.60;;;;;;5011848;28;20522;-73
2021/09/16 10:43:24;;;;;;;11.97;10.73;;;20.00;77.10;;;;;;5013894;28;20484;-73
2021/09/16 10:45:52;;;;;;;11.53;9.80;;;19.80;76.50;;;;;;5013076;28;20545;-74
2021/09/16 10:48:30;;;;;;;11.90;9.83;;;20.10;76.80;;;;;;5016816;28;20863;-73
2021/09/16 10:51:02;;;;;;;11.10;10.10;;;20.60;72.50;;;;;;5016269;28;20491;-73
2021/09/16 10:53:47;;;;;;;10.20;9.20;;;20.50;68.20;;;;;;5017174;28;20442;-75
2021/09/16 10:56:36;;;;;;;11.07;9.97;;;20.40;68.20;;;;;;5016065;28;20500;-74
2021/09/16 10:59:04;;;;;;;11.87;9.73;;;20.50;68.20;;;;;;5008317;28;20494;-73
2021/09/16 11:01:59;;;;;;;9.67;8.77;;;20.60;68.30;;;;;;5030386;28;20531;-73
2021/09/16 11:04:48;;;;;;;10.70;9.50;;;20.60;70.60;;;;;;5017720;28;20435;-73
2021/09/16 11:07:48;;;;;;;10.37;8.40;;;20.90;71.40;;;;;;5010105;28;20461;-71
2021/09/16 11:10:46;;;;;;;10.50;8.60;;;21.00;66.40;;;;;;5018811;28;20497;-72
2021/09/16 11:13:35;;;;;;;9.40;8.50;;;20.90;66.30;;;;;;5012721;28;20492;-73
2021/09/16 11:16:03;;;;;;;9.70;7.80;;;20.60;68.30;;;;;;5018629;28;20579;-74
2021/09/16 11:18:30;;;;;;;7.77;7.07;;;20.80;63.20;;;;;;5018051;28;20568;-74
2021/09/16 11:21:00;;;;;;;9.17;8.33;;;21.00;62.50;;;;;;5027632;28;20433;-73
2021/09/16 11:23:39;;;;;;;8.77;7.83;;;20.80;62.10;;;;;;5036348;28;20449;-73
2021/09/16 11:26:07;;;;;;;8.43;7.63;;;20.20;67.00;;;;;;5033176;28;20426;-72
2021/09/16 11:28:34;;;;;;;8.63;7.73;;;20.40;62.80;;;;;;5037678;28;20507;-72
2021/09/16 11:31:01;;;;;;;8.53;7.20;;;20.40;62.00;;;;;;5026176;28;20563;-74
2021/09/16 11:33:29;;;;;;;8.67;7.80;;;20.40;63.00;;;;;;5020898;28;20522;-73
2021/09/16 11:36:05;;;;;;;8.97;8.17;;;20.30;64.50;;;;;;5019098;28;20433;-73
2021/09/16 11:38:32;;;;;;;9.57;8.57;;;20.20;62.60;;;;;;5003857;28;20502;-73
2021/09/16 11:41:03;;;;;;;10.93;7.93;;;20.20;63.80;;;;;;5002444;28;20476;-72
2021/09/16 11:43:32;;;;;;;9.40;8.50;;;20.30;65.90;;;;;;5000380;28;20436;-72
2021/09/16 11:46:02;;;;;;;9.63;8.63;;;20.60;61.10;;;;;;4997476;28;20485;-72
2021/09/16 11:48:30;;;;;;;9.80;8.90;;;20.80;62.20;;;;;;4997536;28;20485;-72
2021/09/16 11:51:04;;;;;;;8.73;7.83;;;20.70;62.50;;;;;;4996757;28;20451;-73
2021/09/16 11:53:33;;;;;;;9.00;8.20;;;20.60;61.90;;;;;;4997472;28;20458;-74
2021/09/16 11:56:01;;;;;;;11.43;6.83;;;20.80;62.40;;;;;;4998225;28;20460;-75
2021/09/16 11:58:31;;;;;;;8.90;7.67;;;20.90;60.90;;;;;;4998443;28;20551;-74
2021/09/16 12:01:00;;;;;;;8.70;7.90;;;20.80;60.00;;;;;;4996718;28;20463;-73
2021/09/16 12:03:30;;;;;;;9.37;7.90;;;20.80;59.30;;;;;;4999485;28;20553;-73
2021/09/16 12:06:00;;;;;;;10.00;7.30;;;20.50;61.00;;;;;;4996378;28;21006;-74
2021/09/16 12:08:32;;;;;;;9.00;8.10;;;20.50;60.30;;;;;;4995877;28;20567;-73
2021/09/16 12:11:02;;;;;;;7.97;7.07;;;20.10;62.90;;;;;;4995406;28;20569;-74
2021/09/16 12:13:31;;;;;;;9.40;8.50;;;20.30;63.30;;;;;;4996543;28;20450;-74
2021/09/16 12:16:08;;;;;;;9.60;7.80;;;20.50;59.10;;;;;;5000742;28;20475;-74
2021/09/16 12:18:39;;;;;;;8.43;7.00;;;20.80;59.30;;;;;;5005839;28;20549;-74
2021/09/16 12:21:08;;;;;;;9.03;8.07;;;21.10;59.10;;;;;;5014188;28;20474;-74
2021/09/16 12:23:37;;;;;;;8.57;7.77;;;21.40;55.90;;;;;;5015116;28;20479;-73
2021/09/16 12:26:16;;;;;;;8.13;7.20;;;21.80;54.60;;;;;;5013576;28;20454;-72
2021/09/16 12:28:53;;;;;;;9.67;7.40;;;21.80;54.80;;;;;;5017009;28;20453;-77
2021/09/16 12:31:24;;;;;;;7.73;7.00;;;21.90;54.70;;;;;;5015344;28;20433;-74
2021/09/16 12:33:58;;;;;;;6.83;6.23;;;22.00;53.70;;;;;;5016348;28;20448;-74
2021/09/16 12:36:25;;;;;;;8.30;7.40;;;21.40;56.20;;;;;;5005351;28;20459;-73
2021/09/16 12:38:56;;;;;;;9.37;7.07;;;21.30;56.00;;;;;;4996106;28;20451;-75
2021/09/16 12:41:24;;;;;;;7.93;6.70;;;20.90;58.20;;;;;;4995488;28;20983;-73
2021/09/16 12:43:59;;;;;;;8.30;7.60;;;20.90;58.60;;;;;;5011779;28;20472;-74
2021/09/16 12:46:26;;;;;;;7.53;6.70;;;21.30;56.50;;;;;;5014722;28;20440;-74